Time;durP1;ratioP1;P1;durP2;ratioP2;P2;SDS_P1;SDS_P2;PMS_P1;PMS_P2;Temp;Humidity;BMP_temperature;BMP_pressure;BME280_temperature;BME280_humidity;BME280_pressure;Samples;Min_cycle;Max_cycle;Signal;HPM_P1;HPM_P2
2023/07/31 00:00:27;;;;;;;5.03;3.72;;;18.10;99.90;;;;;;4959058;28;20242;-84
2023/07/31 00:02:54;;;;;;;6.10;3.80;;;18.10;99.90;;;;;;4976690;28;20186;-84
2023/07/31 00:05:21;;;;;;;4.88;3.53;;;18.00;99.90;;;;;;4977641;28;20202;-84
2023/07/31 00:07:46;;;;;;;5.38;3.35;;;18.10;99.90;;;;;;4982871;28;20167;-83
2023/07/31 00:10:12;;;;;;;4.90;3.88;;;18.00;99.90;;;;;;4982225;28;20182;-86
2023/07/31 00:12:39;;;;;;;3.95;3.15;;;18.00;99.90;;;;;;4976289;28;20536;-84
2023/07/31 00:15:06;;;;;;;4.93;4.10;;;18.10;99.90;;;;;;4977743;28;20170;-83
2023/07/31 00:17:32;;;;;;;5.35;4.10;;;18.10;99.90;;;;;;4974614;28;20216;-84
2023/07/31 00:19:57;;;;;;;4.10;3.38;;;18.10;99.90;;;;;;4975702;28;20703;-83
2023/07/31 00:22:23;;;;;;;7.18;3.53;;;18.10;99.90;;;;;;4942840;28;20249;-84
2023/07/31 00:24:49;;;;;;;5.30;3.78;;;18.10;99.90;;;;;;4959129;28;20178;-83
2023/07/31 00:27:14;;;;;;;3.70;3.30;;;18.10;99.90;;;;;;4975804;28;20187;-84
2023/07/31 00:29:40;;;;;;;5.95;3.85;;;18.10;99.90;;;;;;4975117;28;20178;-84
2023/07/31 00:32:06;;;;;;;7.63;3.70;;;18.10;99.90;;;;;;4976268;28;20209;-84
2023/07/31 00:34:32;;;;;;;4.07;3.17;;;18.00;99.90;;;;;;4974179;28;20205;-84
2023/07/31 00:36:58;;;;;;;5.57;4.05;;;18.00;99.90;;;;;;4974871;28;20652;-84
2023/07/31 00:39:23;;;;;;;7.88;3.90;;;18.00;99.90;;;;;;4958489;28;20175;-84
2023/07/31 00:41:49;;;;;;;6.47;3.80;;;18.00;99.90;;;;;;4976006;28;20745;-83
2023/07/31 00:44:15;;;;;;;5.90;4.22;;;18.10;99.90;;;;;;4973849;28;20187;-84
2023/07/31 00:46:40;;;;;;;4.88;3.40;;;18.10;99.90;;;;;;4958477;28;20241;-83
2023/07/31 00:49:07;;;;;;;6.45;3.72;;;18.10;99.90;;;;;;4958001;28;20202;-83
2023/07/31 00:51:33;;;;;;;4.70;3.50;;;18.10;99.90;;;;;;4974436;28;20213;-84
2023/07/31 00:53:59;;;;;;;7.75;3.30;;;18.00;99.90;;;;;;4974489;28;20636;-83
2023/07/31 00:56:25;;;;;;;4.15;3.63;;;18.10;99.90;;;;;;4974172;28;20178;-84
2023/07/31 00:58:51;;;;;;;4.80;3.65;;;18.10;99.90;;;;;;4974298;28;20174;-83
2023/07/31 01:01:16;;;;;;;6.32;4.43;;;18.00;99.90;;;;;;4957706;28;20214;-84
2023/07/31 01:03:44;;;;;;;3.92;3.40;;;18.00;99.90;;;;;;4958011;28;20183;-84
2023/07/31 01:06:15;;;;;;;7.13;3.13;;;17.90;99.90;;;;;;4973922;28;20573;-84
2023/07/31 01:09:04;;;;;;;4.85;3.80;;;17.90;99.90;;;;;;4975667;28;20186;-83
2023/07/31 01:11:51;;;;;;;7.22;4.07;;;17.90;99.90;;;;;;4975085;28;20647;-84
2023/07/31 01:14:16;;;;;;;4.10;3.10;;;17.90;99.90;;;;;;4975228;28;20166;-84
2023/07/31 01:16:42;;;;;;;4.63;3.50;;;17.90;99.90;;;;;;4957654;28;20269;-84
2023/07/31 01:19:10;;;;;;;7.75;4.10;;;17.90;99.90;;;;;;4974082;28;20179;-84
2023/07/31 01:21:36;;;;;;;4.68;3.78;;;17.90;99.90;;;;;;4974999;28;20210;-84
2023/07/31 01:24:40;;;;;;;4.40;3.83;;;17.90;99.90;;;;;;4973696;28;20289;-84
2023/07/31 01:27:14;;;;;;;4.47;3.33;;;17.80;99.90;;;;;;4973481;28;20178;-84
2023/07/31 01:29:45;;;;;;;4.25;3.80;;;17.80;99.90;;;;;;4973473;28;20197;-84
2023/07/31 01:32:13;;;;;;;5.88;3.75;;;17.80;99.90;;;;;;4973665;28;20669;-83
2023/07/31 01:34:41;;;;;;;6.25;3.65;;;17.80;99.90;;;;;;4974686;28;20181;-84
2023/07/31 01:37:07;;;;;;;6.82;3.80;;;17.80;99.90;;;;;;4973506;28;20268;-84
2023/07/31 01:39:32;;;;;;;6.38;3.20;;;17.80;99.90;;;;;;4957311;28;20238;-84
2023/07/31 01:41:58;;;;;;;7.20;3.33;;;17.80;99.90;;;;;;4973462;28;20241;-84
2023/07/31 01:44:23;;;;;;;4.00;3.45;;;17.80;99.90;;;;;;4973672;28;20262;-84
2023/07/31 01:46:49;;;;;;;5.65;3.78;;;17.80;99.90;;;;;;4973353;28;20635;-84
2023/07/31 01:49:15;;;;;;;4.43;3.50;;;17.80;99.90;;;;;;4973206;28;20524;-84
2023/07/31 01:51:40;;;;;;;4.53;3.53;;;17.80;99.90;;;;;;4957031;28;20190;-84
2023/07/31 01:54:06;;;;;;;5.90;3.83;;;17.70;99.90;;;;;;4957257;28;20186;-84
2023/07/31 01:56:32;;;;;;;4.43;3.58;;;17.70;99.90;;;;;;4973190;28;20642;-84
2023/07/31 01:58:57;;;;;;;5.93;3.55;;;17.80;99.90;;;;;;4956981;28;20183;-84
2023/07/31 02:01:23;;;;;;;6.03;3.80;;;17.80;99.90;;;;;;4972677;28;20214;-84
2023/07/31 02:03:48;;;;;;;6.60;3.90;;;17.70;99.90;;;;;;4957158;28;20185;-84
2023/07/31 02:06:14;;;;;;;6.38;3.80;;;17.70;99.90;;;;;;4973540;28;20217;-84
2023/07/31 02:08:40;;;;;;;7.50;3.50;;;17.70;99.90;;;;;;4972727;28;20174;-83
2023/07/31 02:11:06;;;;;;;4.63;3.20;;;17.80;99.90;;;;;;4974402;28;20182;-84
2023/07/31 02:13:31;;;;;;;4.22;3.35;;;17.70;99.90;;;;;;4956972;28;20179;-84
2023/07/31 02:15:57;;;;;;;7.63;3.38;;;17.70;99.90;;;;;;4973363;28;20554;-84
2023/07/31 02:18:23;;;;;;;5.25;3.55;;;17.70;99.90;;;;;;4974052;28;20682;-86
2023/07/31 02:20:50;;;;;;;4.60;3.25;;;17.70;99.90;;;;;;4957011;28;20701;-84
2023/07/31 02:23:19;;;;;;;6.07;3.67;;;17.70;99.90;;;;;;4974362;28;20643;-85
2023/07/31 02:25:46;;;;;;;3.88;3.40;;;17.70;99.90;;;;;;4972851;28;20179;-84
2023/07/31 02:28:11;;;;;;;6.65;3.38;;;17.70;99.90;;;;;;4957113;28;20273;-84
2023/07/31 02:30:37;;;;;;;4.30;3.35;;;17.60;99.90;;;;;;4956705;28;20290;-84
2023/07/31 02:33:04;;;;;;;7.22;4.20;;;17.60;99.90;;;;;;4974126;28;20179;-84
2023/07/31 02:35:30;;;;;;;5.78;3.42;;;17.70;99.90;;;;;;4973761;28;20269;-84
2023/07/31 02:37:56;;;;;;;9.32;3.50;;;17.60;99.90;;;;;;4972633;28;20270;-84
2023/07/31 02:40:21;;;;;;;4.03;2.50;;;17.60;99.90;;;;;;4975382;28;20218;-84
2023/07/31 02:42:47;;;;;;;4.50;3.38;;;17.60;99.90;;;;;;4977617;28;20708;-84
2023/07/31 02:45:12;;;;;;;4.45;3.00;;;17.60;99.90;;;;;;4957207;29;20191;-84
2023/07/31 02:47:38;;;;;;;6.03;3.40;;;17.60;99.90;;;;;;4957080;29;20547;-84
2023/07/31 02:50:04;;;;;;;3.97;3.30;;;17.60;99.90;;;;;;4958076;28;20684;-84
2023/07/31 02:52:30;;;;;;;3.80;2.78;;;17.60;99.90;;;;;;4940617;29;20183;-84
2023/07/31 02:54:57;;;;;;;5.00;3.05;;;17.70;99.90;;;;;;4958409;29;20633;-84
2023/07/31 02:57:22;;;;;;;6.20;2.95;;;17.70;99.90;;;;;;4956071;29;20176;-84
2023/07/31 02:59:48;;;;;;;3.67;3.03;;;17.70;99.90;;;;;;4940992;29;20190;-84
2023/07/31 03:02:15;;;;;;;3.45;3.15;;;17.60;99.90;;;;;;4956839;29;20222;-83
2023/07/31 03:04:41;;;;;;;7.65;3.42;;;17.60;99.90;;;;;;4956684;29;20231;-84
2023/07/31 03:07:07;;;;;;;4.93;3.40;;;17.60;99.90;;;;;;4956831;29;20244;-83
2023/07/31 03:09:32;;;;;;;4.60;3.15;;;17.60;99.90;;;;;;4957116;29;20203;-84
2023/07/31 03:11:58;;;;;;;3.53;3.22;;;17.60;99.90;;;;;;4957986;29;20183;-84
2023/07/31 03:14:26;;;;;;;6.00;3.38;;;17.60;99.90;;;;;;4958253;29;20191;-83
2023/07/31 03:16:51;;;;;;;5.35;3.40;;;17.60;99.90;;;;;;4956464;29;20180;-83
2023/07/31 03:19:17;;;;;;;4.55;3.10;;;17.70;99.90;;;;;;4956452;29;20234;-83
2023/07/31 03:21:43;;;;;;;2.85;2.55;;;17.70;99.90;;;;;;4956150;29;20219;-84
2023/07/31 03:24:08;;;;;;;4.82;3.33;;;17.60;99.90;;;;;;4940737;29;20265;-83
2023/07/31 03:26:35;;;;;;;5.55;3.33;;;17.60;99.90;;;;;;4956586;29;20711;-83
2023/07/31 03:29:00;;;;;;;5.20;3.03;;;17.60;99.90;;;;;;4941078;29;20183;-82
2023/07/31 03:31:26;;;;;;;3.50;2.65;;;17.60;99.90;;;;;;4963393;28;20671;-82
2023/07/31 03:33:52;;;;;;;3.70;3.22;;;17.60;99.90;;;;;;4971803;28;20198;-84
2023/07/31 03:36:18;;;;;;;4.95;3.03;;;17.60;99.90;;;;;;4973732;28;20656;-84
2023/07/31 03:38:43;;;;;;;3.10;2.45;;;17.70;99.90;;;;;;4975579;28;20595;-83
2023/07/31 03:41:10;;;;;;;3.45;2.78;;;17.70;99.90;;;;;;4952868;28;20270;-82
2023/07/31 03:43:36;;;;;;;2.92;2.70;;;17.70;99.90;;;;;;4957456;28;20190;-84
2023/07/31 03:46:02;;;;;;;3.97;2.88;;;17.70;99.90;;;;;;4975353;28;20189;-84
2023/07/31 03:48:28;;;;;;;3.00;2.55;;;17.70;99.90;;;;;;4976346;28;20257;-83
2023/07/31 03:50:54;;;;;;;5.43;3.05;;;17.70;99.90;;;;;;4975863;28;20692;-82
2023/07/31 03:53:19;;;;;;;3.05;2.38;;;17.70;99.90;;;;;;4995443;28;20202;-85
2023/07/31 03:55:45;;;;;;;3.30;2.70;;;17.70;99.90;;;;;;4991867;28;20191;-86
2023/07/31 03:58:11;;;;;;;4.75;2.95;;;;;;;;;;4955097;28;20258;-86
2023/07/31 04:00:37;;;;;;;3.70;2.78;;;17.60;99.90;;;;;;4969723;28;20218;-86
2023/07/31 04:03:03;;;;;;;5.32;2.85;;;17.70;99.90;;;;;;4958211;28;20206;-86
2023/07/31 04:05:31;;;;;;;3.88;2.78;;;17.70;99.90;;;;;;4957387;28;20602;-87
2023/07/31 04:07:56;;;;;;;3.33;2.85;;;17.70;99.90;;;;;;4972281;28;20242;-87
2023/07/31 04:10:22;;;;;;;3.95;2.65;;;17.70;99.90;;;;;;4975217;28;20604;-86
2023/07/31 04:12:48;;;;;;;3.40;2.50;;;17.70;99.90;;;;;;4969892;28;20710;-87
2023/07/31 04:15:14;;;;;;;4.13;2.72;;;17.70;99.90;;;;;;4961895;28;20547;-86
2023/07/31 04:17:40;;;;;;;4.72;3.10;;;17.70;99.90;;;;;;4969408;28;20237;-85
2023/07/31 04:20:06;;;;;;;4.07;2.85;;;17.70;99.90;;;;;;4962393;28;20679;-87
2023/07/31 04:22:31;;;;;;;3.67;2.45;;;17.70;99.90;;;;;;4969009;28;20278;-87
2023/07/31 04:24:57;;;;;;;4.88;2.58;;;17.70;99.90;;;;;;4963026;28;20303;-86
2023/07/31 04:27:23;;;;;;;2.78;2.35;;;17.70;99.90;;;;;;4959518;28;20250;-86
2023/07/31 04:29:48;;;;;;;3.10;2.40;;;17.70;99.90;;;;;;4941028;28;20244;-87
2023/07/31 04:32:16;;;;;;;3.22;2.60;;;17.70;99.90;;;;;;4954418;28;20260;-90
2023/07/31 04:34:42;;;;;;;3.75;2.88;;;17.70;99.90;;;;;;4955798;28;20610;-92
2023/07/31 04:37:08;;;;;;;4.03;2.30;;;17.70;99.90;;;;;;4977305;28;20183;-90
2023/07/31 04:39:34;;;;;;;3.17;2.55;;;;;;;;;;4942015;28;20194;-91
2023/07/31 04:42:00;;;;;;;3.97;2.72;;;17.70;99.90;;;;;;4958496;28;20226;-90
2023/07/31 04:44:26;;;;;;;4.22;2.72;;;;;;;;;;4973320;28;20671;-87
2023/07/31 04:46:52;;;;;;;4.63;2.78;;;17.70;99.90;;;;;;4973436;28;20190;-86
2023/07/31 04:49:18;;;;;;;11.45;3.28;;;17.70;99.90;;;;;;4953160;28;20183;-85
2023/07/31 04:51:43;;;;;;;4.75;2.50;;;17.80;99.90;;;;;;4956881;28;20520;-85
2023/07/31 04:54:09;;;;;;;5.82;2.80;;;17.80;99.90;;;;;;4972879;28;20187;-89
2023/07/31 04:56:35;;;;;;;6.65;3.67;;;;;;;;;;4973293;28;20632;-89
2023/07/31 04:59:01;;;;;;;3.83;2.72;;;17.90;99.90;;;;;;4947050;28;20218;-86
2023/07/31 05:01:26;;;;;;;3.53;2.72;;;17.90;99.90;;;;;;4959413;28;20742;-87
2023/07/31 05:03:52;;;;;;;3.10;2.50;;;17.90;99.90;;;;;;4952100;28;20187;-88
2023/07/31 05:06:18;;;;;;;7.38;2.70;;;18.00;99.90;;;;;;4954826;29;20632;-87
2023/07/31 05:08:43;;;;;;;2.58;2.38;;;18.00;99.90;;;;;;4956133;29;20624;-84
2023/07/31 05:11:09;;;;;;;3.45;2.83;;;;;;;;;;4954945;29;20183;-88
2023/07/31 05:13:35;;;;;;;3.92;2.53;;;18.10;99.90;;;;;;4954884;29;20183;-89
2023/07/31 05:16:01;;;;;;;3.33;2.80;;;18.30;99.90;;;;;;4956071;29;20174;-87
2023/07/31 05:18:26;;;;;;;2.78;2.47;;;18.50;99.90;;;;;;4955040;29;20187;-87
2023/07/31 05:20:52;;;;;;;3.03;2.20;;;18.60;99.90;;;;;;4955941;29;20290;-87
2023/07/31 05:23:18;;;;;;;3.30;2.75;;;;;;;;;;4955471;28;20191;-90
2023/07/31 05:25:44;;;;;;;2.90;2.20;;;19.00;99.90;;;;;;4954592;29;20253;-87
2023/07/31 05:28:09;;;;;;;2.42;2.22;;;19.10;99.90;;;;;;4939090;29;20631;-88
2023/07/31 05:30:35;;;;;;;4.20;2.75;;;19.20;99.90;;;;;;4939392;29;20551;-89
2023/07/31 05:33:01;;;;;;;3.00;2.33;;;20.20;99.90;;;;;;4955497;29;20649;-91
2023/07/31 05:35:26;;;;;;;2.55;2.35;;;19.40;99.90;;;;;;4959027;29;20282;-91
2023/07/31 05:37:52;;;;;;;2.85;2.50;;;;;;;;;;4961837;28;20187;-89
2023/07/31 05:40:18;;;;;;;5.68;2.53;;;19.50;99.90;;;;;;4977977;28;20180;-89
2023/07/31 05:42:44;;;;;;;3.53;2.78;;;;;;;;;;4955864;29;20182;-88
2023/07/31 05:45:10;;;;;;;3.47;2.67;;;19.60;99.90;;;;;;4958043;29;20262;-87
2023/07/31 05:47:36;;;;;;;3.83;2.50;;;19.60;99.90;;;;;;4955725;29;20249;-88
2023/07/31 05:50:02;;;;;;;3.58;2.33;;;;;;;;;;4938101;29;20230;-89
2023/07/31 05:52:28;;;;;;;5.18;2.75;;;19.50;99.90;;;;;;4955681;29;20187;-88
2023/07/31 05:54:55;;;;;;;4.60;3.08;;;19.50;99.90;;;;;;4955563;29;20557;-89
2023/07/31 05:57:21;;;;;;;5.50;2.92;;;19.50;99.90;;;;;;4958577;29;20175;-89
2023/07/31 05:59:46;;;;;;;2.78;2.25;;;19.50;99.90;;;;;;4958457;29;20261;-86
2023/07/31 06:02:13;;;;;;;2.33;2.13;;;19.50;99.90;;;;;;4957040;29;20306;-86
2023/07/31 06:04:39;;;;;;;4.47;2.88;;;20.60;99.90;;;;;;4960402;29;20213;-87
2023/07/31 06:07:05;;;;;;;3.85;2.38;;;;;;;;;;4961789;28;20537;-87
2023/07/31 06:09:31;;;;;;;4.75;2.90;;;19.60;99.90;;;;;;4964943;29;20215;-87
2023/07/31 06:11:57;;;;;;;2.83;2.40;;;;;;;;;;4958982;29;20206;-87
2023/07/31 06:14:22;;;;;;;3.08;2.40;;;19.60;99.90;;;;;;4973217;28;20179;-88
2023/07/31 06:16:48;;;;;;;4.15;2.60;;;;;;;;;;4978734;28;20213;-87
2023/07/31 06:19:14;;;;;;;4.15;2.65;;;19.70;99.90;;;;;;4978790;28;20175;-87
2023/07/31 06:21:42;;;;;;;3.90;2.92;;;19.60;99.90;;;;;;4979275;28;20203;-88
2023/07/31 06:24:08;;;;;;;4.90;2.65;;;;;;;;;;4978064;28;20199;-88
2023/07/31 06:26:34;;;;;;;5.05;3.13;;;19.70;99.90;;;;;;4971374;28;20686;-88
2023/07/31 06:29:00;;;;;;;3.22;2.85;;;;;;;;;;4988633;28;20178;-89
2023/07/31 06:31:26;;;;;;;5.15;3.05;;;19.80;99.90;;;;;;4976605;28;20254;-89
2023/07/31 06:33:54;;;;;;;3.42;2.53;;;19.80;99.90;;;;;;4962522;28;20175;-88
2023/07/31 06:36:20;;;;;;;3.28;2.42;;;;;;;;;;4978417;28;20206;-89
2023/07/31 06:38:46;;;;;;;2.90;2.38;;;;;;;;;;4978514;28;20179;-86
2023/07/31 06:41:12;;;;;;;4.45;2.67;;;;;;;;;;4977011;28;20218;-88
2023/07/31 06:43:38;;;;;;;3.17;2.50;;;19.90;99.90;;;;;;4956895;29;20175;-87
2023/07/31 06:46:07;;;;;;;5.70;2.60;;;20.20;99.90;;;;;;4961333;28;20186;-88
2023/07/31 06:48:33;;;;;;;5.15;2.70;;;;;;;;;;4977872;29;20178;-87
2023/07/31 06:51:00;;;;;;;3.97;2.58;;;20.20;99.90;;;;;;4977083;29;20315;-87
2023/07/31 06:53:26;;;;;;;2.97;2.60;;;20.10;99.90;;;;;;4980914;28;20163;-87
2023/07/31 06:55:51;;;;;;;5.57;2.40;;;20.00;99.90;;;;;;4979400;28;20238;-87
2023/07/31 06:58:17;;;;;;;5.65;2.85;;;20.00;99.90;;;;;;4981623;28;20183;-88
2023/07/31 07:00:43;;;;;;;4.05;1.92;;;;;;;;;;4967547;28;20345;-88
2023/07/31 07:03:09;;;;;;;3.13;2.33;;;20.20;99.90;;;;;;4974358;28;20179;-88
2023/07/31 07:05:35;;;;;;;5.47;3.47;;;;;;;;;;4973071;28;20175;-89
2023/07/31 07:08:01;;;;;;;3.45;2.50;;;21.00;99.90;;;;;;4972879;28;20186;-87
2023/07/31 07:10:27;;;;;;;2.58;2.20;;;;;;;;;;4939488;29;20191;-88
2023/07/31 07:12:55;;;;;;;3.45;2.60;;;21.00;99.90;;;;;;4937365;29;20234;-88
2023/07/31 07:15:21;;;;;;;3.25;2.42;;;;;;;;;;4937362;29;20179;-88
2023/07/31 07:17:47;;;;;;;2.35;1.95;;;;;;;;;;4939301;29;20234;-89
2023/07/31 07:20:13;;;;;;;3.28;2.03;;;;;;;;;;4938122;29;20274;-89
2023/07/31 07:22:39;;;;;;;2.60;2.10;;;20.90;99.90;;;;;;4938087;29;20184;-88
2023/07/31 07:25:07;;;;;;;4.47;2.60;;;;;;;;;;4922322;28;20187;-89
2023/07/31 07:27:38;;;;;;;2.72;2.17;;;21.00;99.90;;;;;;4941365;29;20183;-91
2023/07/31 07:30:06;;;;;;;2.60;2.08;;;21.40;99.90;;;;;;4941221;29;20211;-90
2023/07/31 07:32:32;;;;;;;2.38;2.00;;;;;;;;;;4946737;28;20281;-91
2023/07/31 07:34:58;;;;;;;3.40;2.58;;;21.40;99.90;;;;;;4979545;28;20183;-90
2023/07/31 07:37:24;;;;;;;3.75;2.63;;;;;;;;;;4991846;28;20182;-93
2023/07/31 07:39:50;;;;;;;5.05;2.40;;;21.90;99.90;;;;;;5001021;28;20185;-90
2023/07/31 07:42:16;;;;;;;4.55;2.38;;;;;;;;;;4987264;28;20215;-91
2023/07/31 07:44:42;;;;;;;3.28;2.03;;;;;;;;;;4976301;28;20186;-88
2023/07/31 07:47:08;;;;;;;4.30;2.17;;;21.80;99.90;;;;;;4976581;28;20623;-90
2023/07/31 07:49:35;;;;;;;3.53;2.40;;;21.80;99.90;;;;;;4976633;28;20175;-89
2023/07/31 07:52:01;;;;;;;2.17;1.65;;;21.80;99.90;;;;;;4976596;28;20273;-90
2023/07/31 07:54:27;;;;;;;4.35;2.15;;;;;;;;;;4976355;28;20191;-89
2023/07/31 07:56:53;;;;;;;3.35;2.53;;;;;;;;;;4959831;28;20187;-89
2023/07/31 07:59:19;;;;;;;3.75;2.05;;;;;;;;;;4974005;28;20182;-89
2023/07/31 08:01:45;;;;;;;2.65;2.00;;;21.90;99.90;;;;;;4977464;28;20214;-90
2023/07/31 08:04:11;;;;;;;2.60;2.40;;;;;;;;;;4975714;28;20179;-89
2023/07/31 08:06:44;;;;;;;2.63;2.03;;;21.80;99.90;;;;;;4978433;28;20189;-91
2023/07/31 08:09:13;;;;;;;3.22;2.45;;;;;;;;;;4975829;28;20666;-90
2023/07/31 08:11:41;;;;;;;3.13;2.55;;;21.90;99.90;;;;;;4976314;28;20182;-92
2023/07/31 08:14:10;;;;;;;3.00;2.33;;;21.90;99.90;;;;;;4977346;28;20193;-90
2023/07/31 08:16:44;;;;;;;2.30;2.08;;;22.30;99.90;;;;;;4976339;28;20182;-90
2023/07/31 08:19:17;;;;;;;5.43;2.38;;;22.30;99.90;;;;;;4960212;28;20191;-90
2023/07/31 08:21:43;;;;;;;3.38;2.80;;;;;;;;;;4944098;28;20218;-91
2023/07/31 08:24:18;;;;;;;5.72;2.30;;;;;;;;;;4972673;28;20186;-91
2023/07/31 08:26:44;;;;;;;2.63;2.03;;;;;;;;;;4975918;28;20190;-90
2023/07/31 08:29:10;;;;;;;4.63;2.30;;;22.30;99.90;;;;;;4975588;28;20269;-90
2023/07/31 08:31:39;;;;;;;2.72;2.30;;;22.50;99.90;;;;;;4962344;28;20278;-89
2023/07/31 08:34:05;;;;;;;5.20;2.40;;;22.40;99.90;;;;;;4954752;29;20183;-89
2023/07/31 08:36:31;;;;;;;3.55;2.78;;;;;;;;;;4955834;28;20183;-90
2023/07/31 08:39:02;;;;;;;2.97;2.38;;;22.50;99.90;;;;;;4951577;29;20230;-91
2023/07/31 08:41:28;;;;;;;2.80;2.15;;;;;;;;;;4956449;29;20250;-90
2023/07/31 08:43:56;;;;;;;1.77;1.55;;;22.80;99.90;;;;;;4957017;29;20211;-89
2023/07/31 08:46:23;;;;;;;2.47;2.17;;;23.40;99.90;;;;;;4956185;29;20194;-90
2023/07/31 08:49:05;;;;;;;;;;;;;;;;;;;;;
2023/07/31 08:51:31;;;;;;;3.95;2.38;;;23.20;99.90;;;;;;4956585;28;20242;-90
2023/07/31 08:53:57;;;;;;;3.67;2.05;;;23.50;99.90;;;;;;4956951;29;20279;-89
2023/07/31 08:56:24;;;;;;;3.08;2.03;;;23.30;99.90;;;;;;4958782;28;20174;-90
2023/07/31 08:58:53;;;;;;;3.45;1.77;;;23.10;99.90;;;;;;4956312;29;20282;-91
2023/07/31 09:01:20;;;;;;;3.75;2.03;;;;;;;;;;4956276;29;20213;-89
2023/07/31 09:04:01;;;;;;;;;;;;;;;;;;;;;
2023/07/31 09:07:13;;;;;;;1.95;1.55;;;23.30;99.90;;;;;;4967539;29;20287;-91
2023/07/31 09:09:37;;;;;;;2.10;1.73;;;;;;;;;;4964574;29;20189;-92
2023/07/31 09:12:03;;;;;;;1.70;1.60;;;23.40;99.90;;;;;;4958712;29;20187;-92
2023/07/31 09:14:31;;;;;;;2.35;1.73;;;;;;;;;;4969346;29;20751;-92
2023/07/31 09:17:08;;;;;;;1.88;1.67;;;23.70;99.80;;;;;;4967131;29;20183;-89
2023/07/31 09:19:37;;;;;;;2.33;1.83;;;21.10;99.90;;;;;;4955937;29;20175;-90
2023/07/31 09:22:04;;;;;;;2.08;1.88;;;23.90;98.30;;;;;;4956555;29;20215;-91
2023/07/31 09:24:32;;;;;;;6.78;2.95;;;24.00;97.10;;;;;;4962013;28;20270;-91
2023/07/31 09:27:00;;;;;;;4.05;1.95;;;24.30;97.80;;;;;;4959033;28;20233;-91
2023/07/31 09:29:27;;;;;;;2.03;1.80;;;24.20;98.90;;;;;;4958573;28;20174;-90
2023/07/31 09:31:54;;;;;;;3.20;2.13;;;22.90;99.00;;;;;;4958534;28;20197;-92
2023/07/31 09:34:20;;;;;;;3.20;1.75;;;;;;;;;;4958076;28;20559;-88
2023/07/31 09:36:48;;;;;;;3.60;2.30;;;23.50;99.90;;;;;;4967440;28;20205;-92
2023/07/31 09:39:19;;;;;;;2.90;2.08;;;23.70;99.90;;;;;;4973671;28;20632;-91
2023/07/31 09:41:53;;;;;;;5.50;2.00;;;23.60;99.90;;;;;;4958542;28;20233;-89
2023/07/31 09:44:19;;;;;;;5.90;2.10;;;;;;;;;;4973380;28;20178;-88
2023/07/31 09:46:45;;;;;;;3.97;2.30;;;23.50;99.90;;;;;;4973264;28;20186;-91
2023/07/31 09:49:15;;;;;;;4.55;2.00;;;;;;;;;;4972839;28;20635;-91
2023/07/31 09:51:42;;;;;;;2.90;1.90;;;23.20;99.90;;;;;;4973092;28;20245;-90
2023/07/31 09:54:15;;;;;;;2.20;1.92;;;23.20;99.90;;;;;;4960847;28;20178;-90
2023/07/31 09:56:47;;;;;;;2.33;1.50;;;23.20;99.90;;;;;;4967980;28;20190;-91
2023/07/31 09:59:17;;;;;;;1.63;1.45;;;22.40;99.90;;;;;;4969255;28;20182;-88
2023/07/31 10:01:45;;;;;;;2.40;1.73;;;22.30;99.90;;;;;;4972957;28;20206;-90
2023/07/31 10:04:12;;;;;;;2.42;1.85;;;22.50;99.90;;;;;;4974371;28;20684;-90
2023/07/31 10:06:40;;;;;;;2.60;1.88;;;22.80;99.90;;;;;;4958273;28;20191;-90
2023/07/31 10:09:08;;;;;;;1.73;1.60;;;22.80;99.90;;;;;;4938185;29;20183;-88
2023/07/31 10:11:38;;;;;;;5.13;1.60;;;23.00;99.90;;;;;;4945952;29;20182;-90
2023/07/31 10:14:05;;;;;;;2.97;1.80;;;23.20;99.90;;;;;;4954076;29;20191;-90
2023/07/31 10:16:32;;;;;;;1.95;1.63;;;23.30;99.90;;;;;;4953524;29;20214;-89
2023/07/31 10:18:58;;;;;;;2.78;2.05;;;;;;;;;;4949282;29;20206;-89
2023/07/31 10:21:27;;;;;;;3.28;1.88;;;23.20;99.20;;;;;;4953674;29;20305;-89
2023/07/31 10:23:54;;;;;;;3.40;1.77;;;;;;;;;;4953313;29;20184;-89
2023/07/31 10:26:22;;;;;;;1.60;1.40;;;23.00;98.50;;;;;;4953762;29;20641;-88
2023/07/31 10:28:48;;;;;;;2.83;1.80;;;;;;;;;;4961242;28;20196;-88
2023/07/31 10:31:15;;;;;;;1.83;1.60;;;23.00;99.00;;;;;;4984992;28;20222;-90
2023/07/31 10:33:41;;;;;;;1.92;1.58;;;;;;;;;;4969575;28;20179;-88
2023/07/31 10:36:16;;;;;;;2.88;1.75;;;23.00;99.70;;;;;;4971352;28;20198;-91
2023/07/31 10:38:42;;;;;;;2.67;1.92;;;;;;;;;;4973678;28;20183;-88
2023/07/31 10:41:11;;;;;;;3.00;2.10;;;23.10;99.90;;;;;;4960483;28;21415;-89
2023/07/31 10:43:38;;;;;;;1.83;1.50;;;23.20;99.90;;;;;;4962390;28;20274;-88
2023/07/31 10:46:11;;;;;;;2.60;1.65;;;23.20;99.90;;;;;;4975403;28;20202;-89
2023/07/31 10:48:38;;;;;;;9.60;1.80;;;23.40;99.90;;;;;;4949483;29;20190;-90
2023/07/31 10:51:13;;;;;;;3.03;1.70;;;23.60;98.90;;;;;;4969120;28;20261;-89
2023/07/31 10:53:41;;;;;;;2.40;1.63;;;23.80;98.10;;;;;;4970398;28;20209;-90
2023/07/31 10:56:09;;;;;;;2.33;1.50;;;24.10;97.60;;;;;;4987849;28;20183;-90
2023/07/31 10:58:39;;;;;;;3.25;1.63;;;24.30;96.40;;;;;;4973777;28;20182;-90
2023/07/31 11:01:08;;;;;;;3.05;1.73;;;24.30;96.30;;;;;;4966788;28;20211;-88
2023/07/31 11:03:53;;;;;;;4.78;1.70;;;24.20;97.00;;;;;;4971804;28;20195;-89
2023/07/31 11:06:19;;;;;;;2.47;1.63;;;;;;;;;;4974592;28;20747;-89
2023/07/31 11:08:50;;;;;;;1.50;1.40;;;24.50;95.60;;;;;;4974328;28;20191;-88
2023/07/31 11:11:17;;;;;;;1.70;1.55;;;24.70;94.00;;;;;;4969486;28;20171;-88
2023/07/31 11:13:48;;;;;;;3.03;1.75;;;25.00;95.30;;;;;;4968114;28;20187;-90
2023/07/31 11:16:15;;;;;;;1.70;1.50;;;;;;;;;;4974669;28;20179;-88
2023/07/31 11:18:45;;;;;;;2.50;1.80;;;24.80;92.50;;;;;;4965749;28;20211;-90
2023/07/31 11:21:18;;;;;;;1.30;1.17;;;25.00;93.70;;;;;;4964326;28;20282;-89
2023/07/31 11:23:56;;;;;;;2.33;1.70;;;25.00;93.80;;;;;;4973081;28;20183;-88
2023/07/31 11:26:24;;;;;;;5.30;1.70;;;23.60;92.40;;;;;;4980235;28;20179;-91
2023/07/31 11:28:50;;;;;;;2.63;1.60;;;25.30;92.10;;;;;;4980599;28;20536;-90
2023/07/31 11:31:21;;;;;;;2.08;1.73;;;25.40;89.60;;;;;;4974364;28;20274;-90
2023/07/31 11:34:04;;;;;;;2.20;1.38;;;25.40;90.20;;;;;;4976301;28;20186;-90
2023/07/31 11:36:32;;;;;;;5.55;2.58;;;25.60;87.30;;;;;;4989269;28;20190;-89
2023/07/31 11:39:06;;;;;;;2.30;1.63;;;25.70;83.70;;;;;;4970366;28;20182;-91
2023/07/31 11:41:32;;;;;;;2.05;1.50;;;;;;;;;;4971108;28;20266;-88
2023/07/31 11:44:02;;;;;;;1.40;1.30;;;25.30;83.40;;;;;;4975977;28;20187;-92
2023/07/31 11:46:32;;;;;;;4.63;1.60;;;25.20;90.20;;;;;;4978255;28;20186;-90
2023/07/31 11:49:01;;;;;;;2.05;1.25;;;25.20;90.30;;;;;;4979775;28;20174;-90
2023/07/31 11:51:31;;;;;;;3.00;1.40;;;25.00;84.40;;;;;;4962443;28;20836;-88
2023/07/31 11:54:00;;;;;;;1.50;1.40;;;25.10;85.50;;;;;;4967241;28;20178;-91
2023/07/31 11:56:28;;;;;;;1.73;1.33;;;25.20;82.20;;;;;;4980390;28;20175;-87
2023/07/31 11:58:59;;;;;;;1.85;1.63;;;25.20;84.60;;;;;;4960051;28;20186;-89
2023/07/31 12:01:27;;;;;;;1.67;1.45;;;25.40;83.20;;;;;;4961078;28;20217;-89
2023/07/31 12:03:53;;;;;;;1.75;1.60;;;25.60;83.30;;;;;;4958844;28;20182;-88
2023/07/31 12:06:20;;;;;;;1.67;1.50;;;25.60;85.50;;;;;;4974736;28;20218;-89
2023/07/31 12:08:47;;;;;;;1.67;1.58;;;;;;;;;;4974944;28;20178;-89
2023/07/31 12:11:17;;;;;;;2.92;1.48;;;;;;;;;;4975465;28;20548;-87
2023/07/31 12:13:43;;;;;;;1.95;1.40;;;;;;;;;;4974185;28;20187;-86
2023/07/31 12:16:09;;;;;;;1.65;1.55;;;;;;;;;;4959066;28;20686;-87
2023/07/31 12:18:37;;;;;;;2.92;1.67;;;25.00;84.90;;;;;;4976446;28;20179;-88
2023/07/31 12:21:06;;;;;;;2.03;1.65;;;25.00;83.90;;;;;;4975140;28;20245;-88
2023/07/31 12:23:33;;;;;;;1.95;1.45;;;25.00;85.50;;;;;;4975023;28;20179;-88
2023/07/31 12:26:12;;;;;;;4.60;2.15;;;25.40;86.40;;;;;;4975417;28;20190;-89
2023/07/31 12:28:42;;;;;;;2.35;1.75;;;25.10;85.40;;;;;;4975189;28;20229;-87
2023/07/31 12:31:24;;;;;;;2.72;1.50;;;25.20;86.90;;;;;;4974912;28;20190;-89
2023/07/31 12:33:51;;;;;;;2.25;1.55;;;25.30;81.40;;;;;;4974746;28;20182;-88
2023/07/31 12:36:22;;;;;;;2.67;1.55;;;25.30;80.20;;;;;;4974964;28;20197;-89
2023/07/31 12:38:56;;;;;;;6.32;1.98;;;;;;;;;;4976537;28;20186;-90
2023/07/31 12:41:22;;;;;;;2.03;1.35;;;25.40;82.50;;;;;;4975785;28;20305;-89
2023/07/31 12:43:48;;;;;;;2.08;1.23;;;;;;;;;;4976378;28;20284;-87
2023/07/31 12:46:14;;;;;;;1.73;1.42;;;;;;;;;;4976109;28;20644;-89
2023/07/31 12:48:40;;;;;;;3.08;1.48;;;25.10;82.00;;;;;;4975560;28;20183;-88
2023/07/31 12:51:07;;;;;;;2.28;1.48;;;;;;;;;;4975160;28;20261;-89
2023/07/31 12:53:33;;;;;;;3.70;1.70;;;;;;;;;;4975279;28;20266;-87
2023/07/31 12:55:59;;;;;;;2.45;1.60;;;;;;;;;;4975447;28;20183;-88
2023/07/31 12:58:25;;;;;;;2.15;1.40;;;;;;;;;;4975114;28;20187;-87
2023/07/31 13:00:52;;;;;;;1.42;1.33;;;;;;;;;;4976859;28;20215;-86
2023/07/31 13:03:18;;;;;;;3.92;1.65;;;;;;;;;;4975268;28;20179;-85
2023/07/31 13:05:44;;;;;;;2.97;1.95;;;;;;;;;;4975075;28;20198;-86
2023/07/31 13:08:10;;;;;;;1.30;1.15;;;;;;;;;;4959276;28;20182;-87
2023/07/31 13:10:36;;;;;;;1.80;1.55;;;;;;;;;;4975912;28;20523;-89
2023/07/31 13:13:02;;;;;;;3.70;1.70;;;;;;;;;;4975983;28;20175;-88